createdAt,value
2023-05-07T00:03:14.975Z,1.10
2023-05-07T00:08:16.602Z,0.80
2023-05-07T00:13:16.410Z,1.10
2023-05-07T00:18:15.964Z,1.00
2023-05-07T00:23:14.934Z,1.10
2023-05-07T00:28:13.990Z,1.00
2023-05-07T00:33:13.288Z,1.00
2023-05-07T00:38:12.108Z,1.00
2023-05-07T00:43:11.728Z,1.20
2023-05-07T00:48:11.152Z,1.10
2023-05-07T00:53:10.531Z,1.00
2023-05-07T00:58:10.632Z,0.90
2023-05-07T01:03:10.981Z,0.80
2023-05-07T01:08:11.819Z,0.70
2023-05-07T01:13:14.642Z,1.10
2023-05-07T01:18:16.292Z,0.90
2023-05-07T01:23:17.741Z,0.70
2023-05-07T01:28:16.907Z,0.70
2023-05-07T01:33:23.645Z,0.70
2023-05-07T01:38:25.158Z,0.80
2023-05-07T01:43:26.120Z,0.90
2023-05-07T01:48:26.739Z,0.80
2023-05-07T01:53:29.217Z,0.80
2023-05-07T01:58:28.089Z,0.60
2023-05-07T02:03:27.589Z,0.70
2023-05-07T02:08:32.307Z,0.80
2023-05-07T02:13:34.360Z,0.50
2023-05-07T02:18:34.524Z,0.60
2023-05-07T02:23:34.850Z,0.60
2023-05-07T02:28:36.603Z,0.60
2023-05-07T02:33:38.963Z,0.50
2023-05-07T02:38:40.189Z,0.50
2023-05-07T02:43:39.656Z,0.60
2023-05-07T02:48:39.273Z,0.80
2023-05-07T02:53:39.376Z,0.50
2023-05-07T02:58:40.517Z,1.00
2023-05-07T03:03:40.391Z,0.60
2023-05-07T03:08:39.849Z,0.30
2023-05-07T03:13:39.563Z,0.50
2023-05-07T03:18:39.324Z,0.70
2023-05-07T03:23:38.740Z,0.60
2023-05-07T03:28:38.027Z,0.60
2023-05-07T03:33:52.697Z,0.40
2023-05-07T03:38:52.594Z,0.30
2023-05-07T03:43:53.422Z,0.50
2023-05-07T03:48:53.756Z,0.60
2023-05-07T03:53:54.162Z,0.60
2023-05-07T03:58:54.804Z,0.60
2023-05-07T04:03:55.333Z,0.70
2023-05-07T04:08:54.681Z,0.40
2023-05-07T04:13:54.300Z,0.60
2023-05-07T04:18:55.809Z,0.70
2023-05-07T04:23:55.307Z,0.50
2023-05-07T04:28:54.536Z,0.30
2023-05-07T04:33:53.951Z,0.60
2023-05-07T04:38:53.261Z,0.60
2023-05-07T04:43:52.755Z,0.90
2023-05-07T04:48:53.735Z,0.60
2023-05-07T04:53:53.197Z,0.70
2023-05-07T04:58:52.238Z,0.80
2023-05-07T05:03:53.100Z,0.60
2023-05-07T05:08:53.047Z,0.70
2023-05-07T05:13:52.609Z,0.80
2023-05-07T05:18:56.650Z,0.60
2023-05-07T05:23:55.884Z,0.40
2023-05-07T05:28:56.872Z,0.70
2023-05-07T05:33:57.128Z,0.60
2023-05-07T05:38:57.582Z,0.50
2023-05-07T05:43:57.119Z,0.50
2023-05-07T05:48:57.306Z,0.60
2023-05-07T05:53:56.610Z,0.70
2023-05-07T05:58:56.436Z,0.80
2023-05-07T06:03:56.021Z,0.70
2023-05-07T06:08:55.442Z,0.40
2023-05-07T06:13:58.848Z,0.60
2023-05-07T06:18:59.502Z,0.70
2023-05-07T06:23:58.696Z,0.50
2023-05-07T06:28:58.219Z,0.60
2023-05-07T06:33:58.190Z,1.00
2023-05-07T06:39:01.525Z,1.00
2023-05-07T06:44:01.237Z,1.00
2023-05-07T06:49:05.288Z,0.70
2023-05-07T06:54:05.661Z,0.90
2023-05-07T06:59:05.901Z,1.00
2023-05-07T07:04:08.695Z,1.10
2023-05-07T07:09:07.835Z,0.70
2023-05-07T07:14:07.702Z,0.60
2023-05-07T07:19:12.243Z,0.70
2023-05-07T07:24:11.958Z,1.00
2023-05-07T07:29:11.396Z,0.70
2023-05-07T07:34:11.006Z,0.50
2023-05-07T07:39:11.717Z,1.00
2023-05-07T07:44:16.036Z,0.60
2023-05-07T07:49:17.536Z,0.70
2023-05-07T07:54:17.464Z,0.70
2023-05-07T07:59:20.014Z,0.70
2023-05-07T08:04:19.639Z,0.80
2023-05-07T08:09:19.422Z,0.80
2023-05-07T08:14:19.078Z,0.80
2023-05-07T08:19:39.344Z,0.70
2023-05-07T08:24:39.441Z,0.70
2023-05-07T08:29:39.382Z,0.60
2023-05-07T08:34:38.896Z,0.60
2023-05-07T08:39:38.638Z,0.70
2023-05-07T08:44:43.425Z,0.60
2023-05-07T08:49:43.045Z,0.60
2023-05-07T08:54:42.959Z,0.60
2023-05-07T08:59:42.864Z,0.50
2023-05-07T09:04:42.317Z,1.00
2023-05-07T09:09:40.972Z,0.70
2023-05-07T09:14:42.256Z,0.70
2023-05-07T09:19:42.499Z,0.70
2023-05-07T09:24:42.951Z,0.60
2023-05-07T09:29:42.606Z,0.60
2023-05-07T09:34:43.837Z,0.60
2023-05-07T09:39:50.098Z,0.60
2023-05-07T09:44:53.060Z,0.40
2023-05-07T09:50:02.047Z,0.50
2023-05-07T09:55:04.654Z,0.80
2023-05-07T10:00:09.279Z,0.50
2023-05-07T10:05:21.268Z,0.60
2023-05-07T10:10:21.874Z,0.50
2023-05-07T10:15:21.718Z,0.50
2023-05-07T10:20:24.191Z,0.20
2023-05-07T10:25:31.349Z,0.70
2023-05-07T10:30:51.676Z,0.80
2023-05-07T10:35:51.973Z,0.70
2023-05-07T10:40:52.925Z,0.70
2023-05-07T10:46:16.962Z,0.70
2023-05-07T10:51:31.126Z,0.30
2023-05-07T10:56:40.504Z,0.40
2023-05-07T11:02:03.933Z,0.30
2023-05-07T11:07:34.076Z,0.40
2023-05-07T11:13:00.825Z,0.40
2023-05-07T11:18:06.170Z,0.50
2023-05-07T11:23:08.717Z,0.50
2023-05-07T11:28:16.374Z,0.70
2023-05-07T11:33:28.097Z,0.50
2023-05-07T11:38:29.109Z,0.50
2023-05-07T11:43:28.628Z,0.70
2023-05-07T11:48:28.626Z,0.30
2023-05-07T11:53:38.372Z,0.70
2023-05-07T11:58:37.575Z,0.50
2023-05-07T12:03:38.348Z,0.30
2023-05-07T12:08:40.551Z,0.60
2023-05-07T12:13:40.620Z,0.40
2023-05-07T12:18:42.349Z,0.40
2023-05-07T12:23:42.344Z,0.40
2023-05-07T12:28:45.054Z,0.40
2023-05-07T12:33:46.579Z,0.50
2023-05-07T12:38:45.810Z,0.50
2023-05-07T12:43:48.727Z,0.40
2023-05-07T12:48:52.195Z,0.50
2023-05-07T12:53:51.606Z,0.50
2023-05-07T12:58:52.921Z,0.40
2023-05-07T13:03:55.278Z,0.40
2023-05-07T13:08:55.330Z,0.70
2023-05-07T13:13:54.438Z,0.50
2023-05-07T13:18:54.242Z,0.60
2023-05-07T13:23:54.170Z,0.50
2023-05-07T13:28:53.138Z,0.40
2023-05-07T13:33:54.023Z,0.40
2023-05-07T13:38:54.721Z,0.70
2023-05-07T13:43:53.763Z,0.70
2023-05-07T13:48:53.136Z,0.60
2023-05-07T13:53:53.667Z,0.70
2023-05-07T13:58:59.871Z,0.60
2023-05-07T14:04:00.908Z,0.80
2023-05-07T14:09:01.156Z,0.90
2023-05-07T14:13:59.971Z,0.90
2023-05-07T14:18:59.436Z,1.00
2023-05-07T14:23:59.054Z,1.20
2023-05-07T14:28:59.416Z,1.40
2023-05-07T14:34:00.630Z,1.80
2023-05-07T14:39:01.350Z,1.80
2023-05-07T14:44:02.809Z,1.60
2023-05-07T14:49:02.456Z,1.40
2023-05-07T14:54:02.936Z,1.70
2023-05-07T14:59:02.327Z,1.70
2023-05-07T15:04:02.520Z,2.00
2023-05-07T15:09:02.712Z,1.80
2023-05-07T15:14:01.871Z,1.70
2023-05-07T15:19:01.662Z,1.90
2023-05-07T15:24:00.268Z,2.20
2023-05-07T15:28:59.520Z,1.90
2023-05-07T15:33:58.794Z,2.10
2023-05-07T15:38:58.788Z,1.90
2023-05-07T15:43:58.388Z,2.90
2023-05-07T15:48:58.972Z,2.60
2023-05-07T15:53:58.166Z,2.10
2023-05-07T15:58:58.438Z,2.40
2023-05-07T16:03:57.390Z,2.80
2023-05-07T16:08:57.343Z,2.90
2023-05-07T16:13:56.568Z,3.00
2023-05-07T16:18:56.175Z,2.80
2023-05-07T16:23:55.273Z,2.50
2023-05-07T16:28:55.585Z,3.10
2023-05-07T16:33:54.876Z,3.00
2023-05-07T16:38:54.060Z,3.70
2023-05-07T16:43:53.096Z,2.70
2023-05-07T16:48:52.589Z,3.10
2023-05-07T16:53:52.728Z,2.80
2023-05-07T16:58:51.792Z,3.40
2023-05-07T17:03:51.580Z,2.90
2023-05-07T17:08:51.764Z,2.20
2023-05-07T17:13:52.211Z,2.70
2023-05-07T17:18:51.528Z,2.50
2023-05-07T17:23:50.525Z,2.60
2023-05-07T17:28:49.988Z,2.50
2023-05-07T17:33:49.457Z,2.50
2023-05-07T17:38:48.616Z,1.90
2023-05-07T17:43:48.377Z,2.30
2023-05-07T17:48:50.520Z,2.30
2023-05-07T17:53:50.422Z,2.00
2023-05-07T18:03:53.323Z,2.20
2023-05-07T18:08:54.662Z,2.50
2023-05-07T18:13:54.269Z,2.50
2023-05-07T18:18:54.816Z,2.70
2023-05-07T18:23:56.531Z,2.30
2023-05-07T18:28:55.697Z,3.00
2023-05-07T18:33:57.338Z,1.80
2023-05-07T18:38:57.636Z,1.70
2023-05-07T18:43:57.292Z,1.60
2023-05-07T18:48:58.715Z,1.80
2023-05-07T18:53:58.202Z,1.90
2023-05-07T18:58:56.950Z,2.00
2023-05-07T19:03:58.663Z,2.50
2023-05-07T19:09:01.804Z,2.70
2023-05-07T19:14:03.658Z,2.60
2023-05-07T19:19:04.650Z,2.70
2023-05-07T19:24:04.327Z,2.60
2023-05-07T19:29:16.704Z,2.70
2023-05-07T19:34:18.052Z,2.70
2023-05-07T19:39:18.679Z,3.40
2023-05-07T19:44:18.829Z,3.30
2023-05-07T19:49:18.448Z,3.50
2023-05-07T19:54:17.899Z,3.10
2023-05-07T19:59:17.011Z,3.10
2023-05-07T20:04:16.653Z,3.20
2023-05-07T20:09:16.181Z,3.40
2023-05-07T20:14:15.954Z,3.70
2023-05-07T20:19:15.489Z,3.90
2023-05-07T20:24:15.076Z,4.60
2023-05-07T20:29:14.973Z,4.30
2023-05-07T20:34:14.882Z,5.30
2023-05-07T20:39:16.077Z,4.90
2023-05-07T20:44:14.958Z,5.90
2023-05-07T20:49:15.058Z,6.50
2023-05-07T20:54:14.972Z,6.40
2023-05-07T20:59:14.599Z,5.90
2023-05-07T21:04:14.194Z,7.30
2023-05-07T21:09:13.145Z,6.90
2023-05-07T21:14:12.701Z,6.00
2023-05-07T21:19:11.694Z,6.50
2023-05-07T21:24:12.535Z,7.30
2023-05-07T21:29:11.433Z,5.80
2023-05-07T21:34:10.822Z,5.80
2023-05-07T21:39:09.978Z,5.80
2023-05-07T21:44:11.355Z,5.40
2023-05-07T21:49:10.863Z,4.70
2023-05-07T21:54:10.629Z,5.20
2023-05-07T21:59:09.731Z,5.80
2023-05-07T22:04:09.650Z,6.10
2023-05-07T22:09:09.685Z,5.10
2023-05-07T22:14:09.265Z,5.00
2023-05-07T22:19:08.513Z,4.80
2023-05-07T22:24:09.025Z,5.10
2023-05-07T22:29:08.776Z,5.30
2023-05-07T22:34:07.526Z,5.80
2023-05-07T22:39:09.192Z,5.70
2023-05-07T22:44:09.636Z,5.80
2023-05-07T22:49:09.397Z,6.10
2023-05-07T22:54:09.283Z,5.30
2023-05-07T22:59:08.671Z,5.00
2023-05-07T23:04:08.788Z,4.50
2023-05-07T23:09:08.840Z,5.20
2023-05-07T23:14:08.654Z,4.40
2023-05-07T23:19:08.295Z,4.40
2023-05-07T23:24:08.231Z,4.50
2023-05-07T23:29:07.304Z,4.20
2023-05-07T23:34:06.662Z,4.30
2023-05-07T23:39:05.846Z,4.50
2023-05-07T23:44:05.186Z,4.00
2023-05-07T23:49:04.951Z,4.50
2023-05-07T23:54:04.953Z,4.60
2023-05-07T23:59:04.678Z,5.10
